createdAt,value
2019-03-25T00:01:00.552Z,4.90
2019-03-25T00:03:31.873Z,4.80
2019-03-25T00:06:03.363Z,4.70
2019-03-25T00:08:35.129Z,4.70
2019-03-25T00:11:06.577Z,4.70
2019-03-25T00:13:37.956Z,4.60
2019-03-25T00:16:09.335Z,4.50
2019-03-25T00:18:40.677Z,4.50
2019-03-25T00:21:12.002Z,4.40
2019-03-25T00:23:43.542Z,4.30
2019-03-25T00:26:14.966Z,4.30
2019-03-25T00:28:46.445Z,4.20
2019-03-25T00:31:17.912Z,4.20
2019-03-25T00:33:49.314Z,4.10
2019-03-25T00:36:20.538Z,4.10
2019-03-25T00:38:51.838Z,4.10
2019-03-25T00:41:25.521Z,4.10
2019-03-25T00:43:56.932Z,4.10
2019-03-25T00:46:28.415Z,4.20
2019-03-25T00:49:00.701Z,4.20
2019-03-25T00:51:32.208Z,4.30
2019-03-25T00:54:03.466Z,4.40
2019-03-25T00:56:34.712Z,4.50
2019-03-25T00:59:06.072Z,4.70
2019-03-25T01:01:37.238Z,4.90
2019-03-25T01:04:08.934Z,5.00
2019-03-25T01:06:40.190Z,5.10
2019-03-25T01:09:11.664Z,5.20
2019-03-25T01:11:49.045Z,5.30
2019-03-25T01:14:16.258Z,5.30
2019-03-25T01:16:47.610Z,5.40
2019-03-25T01:19:18.905Z,5.40
2019-03-25T01:21:50.165Z,5.40
2019-03-25T01:24:21.524Z,5.40
2019-03-25T01:26:53.084Z,5.50
2019-03-25T01:29:24.482Z,5.50
2019-03-25T01:31:55.961Z,5.50
2019-03-25T01:34:27.452Z,5.60
2019-03-25T01:36:58.762Z,5.60
2019-03-25T01:39:30.359Z,5.70
2019-03-25T01:42:01.768Z,5.70
2019-03-25T01:44:33.928Z,5.70
2019-03-25T01:47:05.425Z,5.70
2019-03-25T01:49:36.833Z,5.80
2019-03-25T01:52:08.062Z,5.80
2019-03-25T01:54:39.383Z,5.80
2019-03-25T01:57:10.822Z,5.70
2019-03-25T01:59:42.032Z,5.80
2019-03-25T02:02:13.222Z,5.80
2019-03-25T02:04:44.517Z,5.80
2019-03-25T02:07:15.749Z,5.80
2019-03-25T02:09:47.103Z,5.80
2019-03-25T02:12:18.675Z,5.90
2019-03-25T02:14:50.022Z,5.90
2019-03-25T02:17:21.261Z,5.90
2019-03-25T02:19:52.450Z,6.00
2019-03-25T02:22:23.679Z,6.00
2019-03-25T02:24:55.018Z,6.00
2019-03-25T02:27:26.330Z,6.00
2019-03-25T02:29:57.510Z,6.00
2019-03-25T02:32:31.252Z,5.90
2019-03-25T02:35:02.581Z,5.90
2019-03-25T02:37:33.762Z,5.80
2019-03-25T02:40:06.193Z,5.70
2019-03-25T02:42:37.590Z,5.60
2019-03-25T02:45:09.360Z,5.50
2019-03-25T02:47:40.672Z,5.50
2019-03-25T02:50:12.890Z,5.50
2019-03-25T02:52:45.473Z,5.40
2019-03-25T02:55:16.690Z,5.40
2019-03-25T02:57:48.041Z,5.40
2019-03-25T03:00:34.180Z,5.30
2019-03-25T03:03:06.117Z,5.20
2019-03-25T03:05:37.714Z,5.20
2019-03-25T03:08:09.213Z,5.20
2019-03-25T03:10:40.513Z,5.20
2019-03-25T03:13:11.987Z,5.20
2019-03-25T03:15:43.215Z,5.30
2019-03-25T03:18:14.489Z,5.30
2019-03-25T03:20:45.843Z,5.30
2019-03-25T03:23:17.118Z,5.40
2019-03-25T03:25:57.285Z,5.40
2019-03-25T03:28:21.689Z,5.40
2019-03-25T03:30:52.905Z,5.40
2019-03-25T03:33:24.188Z,5.30
2019-03-25T03:35:55.408Z,5.40
2019-03-25T03:38:26.618Z,5.30
2019-03-25T03:40:57.952Z,5.30
2019-03-25T03:43:29.208Z,5.30
2019-03-25T03:46:00.693Z,5.30
2019-03-25T03:48:31.945Z,5.20
2019-03-25T03:51:03.595Z,5.20
2019-03-25T03:53:35.097Z,5.10
2019-03-25T03:56:13.539Z,5.10
2019-03-25T03:58:43.624Z,5.10
2019-03-25T04:01:14.787Z,5.10
2019-03-25T04:03:45.980Z,5.10
2019-03-25T04:06:17.433Z,5.10
2019-03-25T04:08:51.156Z,5.10
2019-03-25T04:11:22.389Z,5.20
2019-03-25T04:13:53.667Z,5.20
2019-03-25T04:16:24.994Z,5.20
2019-03-25T04:18:56.244Z,5.30
2019-03-25T04:21:27.497Z,5.30
2019-03-25T04:24:00.405Z,5.30
2019-03-25T04:26:31.742Z,5.30
2019-03-25T04:29:03.321Z,5.30
2019-03-25T04:31:34.841Z,5.20
2019-03-25T04:34:06.122Z,5.20
2019-03-25T04:36:37.474Z,5.20
2019-03-25T04:39:09.097Z,5.20
2019-03-25T04:41:40.439Z,5.20
2019-03-25T04:44:12.068Z,5.20
2019-03-25T04:46:43.351Z,5.20
2019-03-25T04:49:15.935Z,5.10
2019-03-25T04:51:47.174Z,5.10
2019-03-25T04:54:18.502Z,5.00
2019-03-25T04:56:53.909Z,4.90
2019-03-25T04:59:25.310Z,4.80
2019-03-25T05:01:57.996Z,4.80
2019-03-25T05:04:29.231Z,4.80
2019-03-25T05:07:00.641Z,4.90
2019-03-25T05:09:32.051Z,5.00
2019-03-25T05:12:03.474Z,4.90
2019-03-25T05:14:34.713Z,4.90
2019-03-25T05:17:05.858Z,4.90
2019-03-25T05:19:37.112Z,4.80
2019-03-25T05:22:08.253Z,4.70
2019-03-25T05:24:39.422Z,4.60
2019-03-25T05:27:10.745Z,4.60
2019-03-25T05:29:42.026Z,4.60
2019-03-25T05:32:13.450Z,4.70
2019-03-25T05:34:44.716Z,4.70
2019-03-25T05:37:16.332Z,4.80
2019-03-25T05:39:47.562Z,4.80
2019-03-25T05:42:18.976Z,4.90
2019-03-25T05:44:50.219Z,5.00
2019-03-25T05:47:21.560Z,5.00
2019-03-25T05:49:52.936Z,5.00
2019-03-25T05:52:24.474Z,5.00
2019-03-25T05:54:55.710Z,4.90
2019-03-25T05:57:27.341Z,4.90
2019-03-25T05:59:58.503Z,5.00
2019-03-25T06:02:29.858Z,5.00
2019-03-25T06:05:01.134Z,5.00
2019-03-25T06:07:32.443Z,5.00
2019-03-25T06:10:04.461Z,5.10
2019-03-25T06:12:35.753Z,5.10
2019-03-25T06:15:08.769Z,5.20
2019-03-25T06:17:40.076Z,5.30
2019-03-25T06:20:11.711Z,5.60
2019-03-25T06:22:42.978Z,5.90
2019-03-25T06:25:14.683Z,7.60
2019-03-25T06:27:46.053Z,9.80
2019-03-25T06:30:17.435Z,12.00
2019-03-25T06:32:48.716Z,12.30
2019-03-25T06:35:20.362Z,11.50
2019-03-25T06:37:51.642Z,11.10
2019-03-25T06:40:23.001Z,11.60
2019-03-25T06:42:54.258Z,12.50
2019-03-25T06:45:25.429Z,13.30
2019-03-25T06:47:56.775Z,14.70
2019-03-25T06:50:28.077Z,16.10
2019-03-25T06:52:59.425Z,17.00
2019-03-25T06:55:30.752Z,17.20
2019-03-25T06:58:02.132Z,17.40
2019-03-25T07:00:33.529Z,17.70
2019-03-25T07:03:04.824Z,17.70
2019-03-25T07:05:36.400Z,18.00
2019-03-25T07:08:10.712Z,18.40
2019-03-25T07:10:42.015Z,19.30
2019-03-25T07:13:13.462Z,19.50
2019-03-25T07:15:46.378Z,18.50
2019-03-25T07:18:17.601Z,17.80
2019-03-25T07:20:48.994Z,16.40
2019-03-25T07:23:20.258Z,14.70
2019-03-25T07:25:51.747Z,13.70
2019-03-25T07:28:23.163Z,12.40
2019-03-25T07:30:54.749Z,10.80
2019-03-25T07:33:26.086Z,9.80
2019-03-25T07:35:57.562Z,9.10
2019-03-25T07:38:30.575Z,8.70
2019-03-25T07:41:02.032Z,8.20
2019-03-25T07:43:33.556Z,7.80
2019-03-25T07:46:06.601Z,7.50
2019-03-25T07:48:37.852Z,7.40
2019-03-25T07:51:09.398Z,7.50
2019-03-25T07:53:41.787Z,7.50
2019-03-25T07:56:13.381Z,7.50
2019-03-25T07:58:44.842Z,7.80
2019-03-25T08:01:16.197Z,8.10
2019-03-25T08:03:49.745Z,8.30
2019-03-25T08:06:23.199Z,8.10
2019-03-25T08:09:03.777Z,7.90
2019-03-25T08:11:31.319Z,7.60
2019-03-25T08:14:05.327Z,7.20
2019-03-25T08:16:38.739Z,6.90
2019-03-25T08:19:09.954Z,6.70
2019-03-25T08:21:41.587Z,6.70
2019-03-25T08:24:15.306Z,7.00
2019-03-25T08:26:47.243Z,7.30
2019-03-25T08:29:18.524Z,7.50
2019-03-25T08:31:49.973Z,7.50
2019-03-25T08:34:21.302Z,7.70
2019-03-25T08:36:52.798Z,7.80
2019-03-25T08:39:24.220Z,7.70
2019-03-25T08:41:55.722Z,7.70
2019-03-25T08:44:27.053Z,7.90
2019-03-25T08:46:58.528Z,8.00
2019-03-25T08:49:29.956Z,8.10
2019-03-25T08:52:01.191Z,8.30
2019-03-25T08:54:32.547Z,8.40
2019-03-25T08:57:04.314Z,8.30
2019-03-25T08:59:35.491Z,8.20
2019-03-25T09:02:06.855Z,8.10
2019-03-25T09:04:38.212Z,7.70
2019-03-25T09:07:09.440Z,7.20
2019-03-25T09:09:40.870Z,6.80
2019-03-25T09:12:12.146Z,6.70
2019-03-25T09:14:43.570Z,6.70
2019-03-25T09:17:14.988Z,7.00
2019-03-25T09:19:46.293Z,7.10
2019-03-25T09:22:17.710Z,7.20
2019-03-25T09:24:52.446Z,7.30
2019-03-25T09:27:23.694Z,7.40
2019-03-25T09:29:55.216Z,7.60
2019-03-25T09:32:34.051Z,8.20
2019-03-25T09:35:06.259Z,8.90
2019-03-25T09:37:37.563Z,9.40
2019-03-25T09:40:11.935Z,9.80
2019-03-25T09:42:43.056Z,9.80
2019-03-25T09:45:14.530Z,9.40
2019-03-25T09:47:46.026Z,8.80
2019-03-25T09:50:17.394Z,8.40
2019-03-25T09:52:48.951Z,8.60
2019-03-25T09:55:21.478Z,9.10
2019-03-25T09:57:52.721Z,9.30
2019-03-25T10:00:30.790Z,9.40
2019-03-25T10:03:02.244Z,9.90
2019-03-25T10:05:33.692Z,9.60
2019-03-25T10:08:04.956Z,9.30
2019-03-25T10:10:36.264Z,9.00
2019-03-25T10:13:07.674Z,8.50
2019-03-25T10:15:39.061Z,8.10
2019-03-25T10:18:10.418Z,8.10
2019-03-25T10:20:43.496Z,8.30
2019-03-25T10:23:14.884Z,9.20
2019-03-25T10:25:46.179Z,9.80
2019-03-25T10:28:17.701Z,9.70
2019-03-25T10:30:48.926Z,9.20
2019-03-25T10:33:20.247Z,8.60
2019-03-25T10:35:52.921Z,7.90
2019-03-25T10:38:24.581Z,7.40
2019-03-25T10:40:55.871Z,7.10
2019-03-25T10:43:27.117Z,7.00
2019-03-25T10:45:58.474Z,7.20
2019-03-25T10:48:29.940Z,7.80
2019-03-25T10:51:01.577Z,8.20
2019-03-25T10:53:33.012Z,8.20
2019-03-25T10:56:04.446Z,8.10
2019-03-25T10:58:35.778Z,7.60
2019-03-25T11:01:09.519Z,7.10
2019-03-25T11:03:41.475Z,6.80
2019-03-25T11:06:12.926Z,6.70
2019-03-25T11:08:46.706Z,6.90
2019-03-25T11:11:21.707Z,7.10
2019-03-25T11:13:53.029Z,7.40
2019-03-25T11:16:24.839Z,8.00
2019-03-25T11:18:59.108Z,8.40
2019-03-25T11:21:30.570Z,9.00
2019-03-25T11:24:02.047Z,9.10
2019-03-25T11:26:33.631Z,8.90
2019-03-25T11:29:08.721Z,10.10
2019-03-25T11:31:38.233Z,12.00
2019-03-25T11:34:09.635Z,12.50
2019-03-25T11:36:42.101Z,13.30
2019-03-25T11:39:13.760Z,15.10
2019-03-25T11:41:47.245Z,16.50
2019-03-25T11:44:18.926Z,16.50
2019-03-25T11:46:51.558Z,15.50
2019-03-25T11:49:23.469Z,13.70
2019-03-25T11:51:56.910Z,12.00
2019-03-25T11:54:28.373Z,11.30
2019-03-25T11:56:59.855Z,11.10
2019-03-25T11:59:31.409Z,11.60
2019-03-25T12:02:02.638Z,11.80
2019-03-25T12:04:33.916Z,11.50
2019-03-25T12:07:05.371Z,11.50
2019-03-25T12:09:36.748Z,11.60
2019-03-25T12:12:10.121Z,11.90
2019-03-25T12:14:41.689Z,11.90
2019-03-25T12:17:13.027Z,11.90
2019-03-25T12:19:44.537Z,11.90
2019-03-25T12:22:15.974Z,11.90
2019-03-25T12:24:47.525Z,10.90
2019-03-25T12:27:18.991Z,9.80
2019-03-25T12:29:53.699Z,9.80
2019-03-25T12:32:25.019Z,9.90
2019-03-25T12:34:56.429Z,9.60
2019-03-25T12:37:27.748Z,9.20
2019-03-25T12:39:59.587Z,9.00
2019-03-25T12:42:30.925Z,8.90
2019-03-25T12:45:02.284Z,9.00
2019-03-25T12:47:33.913Z,9.40
2019-03-25T12:50:06.520Z,9.70
2019-03-25T12:52:38.122Z,9.90
2019-03-25T12:55:09.768Z,10.10
2019-03-25T12:57:41.226Z,10.30
2019-03-25T13:00:13.235Z,10.70
2019-03-25T13:02:47.648Z,11.30
2019-03-25T13:05:19.020Z,11.80
2019-03-25T13:07:50.415Z,12.30
2019-03-25T13:10:21.766Z,12.30
2019-03-25T13:12:53.197Z,12.00
2019-03-25T13:15:24.572Z,11.50
2019-03-25T13:17:55.955Z,11.00
2019-03-25T13:20:27.500Z,10.20
2019-03-25T13:23:01.051Z,8.60
2019-03-25T13:25:32.655Z,7.70
2019-03-25T13:28:04.293Z,7.30
2019-03-25T13:30:35.587Z,7.20
2019-03-25T13:33:06.913Z,7.40
2019-03-25T13:35:38.318Z,7.70
2019-03-25T13:38:13.822Z,8.00
2019-03-25T13:40:45.497Z,8.30
2019-03-25T13:43:16.912Z,8.50
2019-03-25T13:45:48.199Z,8.70
2019-03-25T13:48:22.039Z,8.80
2019-03-25T13:50:53.001Z,8.90
2019-03-25T13:53:26.038Z,8.90
2019-03-25T13:55:57.297Z,9.20
2019-03-25T13:58:28.808Z,9.50
2019-03-25T14:01:00.094Z,9.90
2019-03-25T14:03:31.538Z,10.10
2019-03-25T14:06:02.967Z,10.20
2019-03-25T14:08:34.300Z,10.10
2019-03-25T14:11:05.717Z,10.00
2019-03-25T14:13:36.998Z,10.00
2019-03-25T14:16:13.290Z,10.20
2019-03-25T14:18:44.699Z,10.20
2019-03-25T14:21:16.071Z,10.40
2019-03-25T14:23:47.447Z,10.40
2019-03-25T14:26:18.889Z,10.30
2019-03-25T14:28:50.209Z,10.00
2019-03-25T14:31:21.935Z,9.80
2019-03-25T14:33:53.493Z,9.60
2019-03-25T14:36:24.861Z,9.30
2019-03-25T14:38:56.135Z,9.00
2019-03-25T14:41:27.450Z,8.50
2019-03-25T14:43:58.826Z,7.60
2019-03-25T14:46:33.117Z,6.80
2019-03-25T14:49:04.701Z,6.20
2019-03-25T14:51:36.184Z,5.90
2019-03-25T14:54:07.454Z,5.90
2019-03-25T14:56:38.804Z,6.10
2019-03-25T14:59:10.299Z,6.30
2019-03-25T15:01:41.672Z,6.50
2019-03-25T15:04:13.593Z,6.80
2019-03-25T15:06:45.093Z,7.00
2019-03-25T15:09:17.245Z,7.00
2019-03-25T15:11:51.696Z,7.10
2019-03-25T15:14:23.209Z,7.00
2019-03-25T15:16:54.593Z,6.90
2019-03-25T15:19:25.874Z,6.90
2019-03-25T15:21:57.214Z,7.00
2019-03-25T15:24:28.605Z,7.00
2019-03-25T15:27:00.241Z,7.00
2019-03-25T15:29:31.557Z,7.00
2019-03-25T15:32:02.939Z,7.20
2019-03-25T15:34:34.235Z,7.60
2019-03-25T15:37:07.582Z,7.70
2019-03-25T15:39:46.317Z,7.70
2019-03-25T15:42:13.652Z,7.70
2019-03-25T15:44:45.046Z,7.60
2019-03-25T15:47:16.453Z,7.50
2019-03-25T15:49:47.866Z,7.50
2019-03-25T15:52:19.153Z,7.80
2019-03-25T15:54:50.499Z,8.00
2019-03-25T15:57:21.878Z,8.30
2019-03-25T15:59:53.134Z,8.40
2019-03-25T16:02:24.480Z,8.40
2019-03-25T16:04:55.769Z,8.30
2019-03-25T16:07:27.000Z,8.20
2019-03-25T16:09:58.381Z,8.20
2019-03-25T16:12:29.831Z,8.20
2019-03-25T16:15:01.505Z,8.10
2019-03-25T16:17:44.823Z,8.10
2019-03-25T16:20:19.194Z,8.10
2019-03-25T16:22:56.098Z,8.00
2019-03-25T16:25:28.402Z,8.00
2019-03-25T16:28:01.687Z,7.90
2019-03-25T16:30:33.495Z,7.90
2019-03-25T16:33:05.083Z,7.90
2019-03-25T16:35:38.978Z,7.80
2019-03-25T16:38:10.542Z,7.60
2019-03-25T16:40:41.985Z,7.60
2019-03-25T16:43:13.320Z,7.70
2019-03-25T16:45:44.598Z,7.80
2019-03-25T16:48:18.124Z,8.00
2019-03-25T16:50:49.532Z,8.10
2019-03-25T16:53:21.244Z,8.20
2019-03-25T16:55:56.952Z,8.20
2019-03-25T16:58:43.453Z,8.20
2019-03-25T17:01:24.180Z,8.10
2019-03-25T17:03:57.254Z,8.00
2019-03-25T17:06:31.347Z,7.80
2019-03-25T17:09:06.694Z,7.70
2019-03-25T17:11:38.082Z,7.60
2019-03-25T17:14:09.450Z,7.50
2019-03-25T17:16:41.088Z,7.40
2019-03-25T17:19:14.668Z,7.30
2019-03-25T17:21:57.426Z,7.20
2019-03-25T17:24:19.363Z,7.10
2019-03-25T17:26:52.669Z,7.00
2019-03-25T17:29:25.826Z,6.80
2019-03-25T17:31:58.720Z,6.60
2019-03-25T17:34:30.191Z,6.40
2019-03-25T17:37:01.926Z,6.30
2019-03-25T17:39:35.190Z,6.20
2019-03-25T17:42:06.494Z,6.20
2019-03-25T17:44:37.836Z,6.20
2019-03-25T17:47:14.631Z,6.10
2019-03-25T17:49:49.490Z,6.10
2019-03-25T17:52:21.282Z,6.20
2019-03-25T17:54:52.911Z,6.30
2019-03-25T17:57:24.090Z,6.50
2019-03-25T17:59:55.565Z,6.50
2019-03-25T18:02:29.014Z,6.50
2019-03-25T18:05:00.486Z,6.50
2019-03-25T18:07:37.711Z,6.50
2019-03-25T18:10:13.891Z,6.50
2019-03-25T18:12:45.333Z,6.40
2019-03-25T18:15:20.082Z,6.40
2019-03-25T18:17:52.360Z,6.40
2019-03-25T18:20:23.733Z,6.40
2019-03-25T18:22:55.094Z,6.40
2019-03-25T18:25:26.592Z,6.50
2019-03-25T18:28:00.517Z,6.50
2019-03-25T18:30:36.513Z,6.50
2019-03-25T18:33:09.684Z,6.40
2019-03-25T18:35:40.905Z,6.30
2019-03-25T18:38:12.249Z,6.30
2019-03-25T18:40:43.570Z,6.30
2019-03-25T18:43:18.538Z,6.30
2019-03-25T18:45:49.251Z,6.30
2019-03-25T18:48:24.687Z,6.30
2019-03-25T18:50:56.152Z,6.40
2019-03-25T18:53:28.083Z,6.40
2019-03-25T18:56:01.575Z,6.50
2019-03-25T18:58:32.999Z,6.50
2019-03-25T19:01:04.627Z,6.50
2019-03-25T19:03:38.912Z,6.50
2019-03-25T19:06:10.385Z,6.60
2019-03-25T19:08:41.573Z,6.60
2019-03-25T19:11:12.844Z,6.60
2019-03-25T19:13:44.142Z,6.60
2019-03-25T19:16:15.531Z,6.60
2019-03-25T19:18:46.759Z,6.60
2019-03-25T19:21:18.686Z,6.60
2019-03-25T19:23:50.054Z,6.60
2019-03-25T19:26:24.741Z,6.70
2019-03-25T19:28:56.636Z,6.70
2019-03-25T19:31:30.431Z,6.60
2019-03-25T19:34:01.959Z,6.60
2019-03-25T19:36:35.025Z,6.70
2019-03-25T19:39:09.737Z,6.70
2019-03-25T19:41:43.881Z,6.60
2019-03-25T19:44:19.758Z,6.50
2019-03-25T19:46:52.780Z,6.40
2019-03-25T19:49:24.338Z,6.40
2019-03-25T19:51:56.400Z,6.40
2019-03-25T19:54:27.836Z,6.50
2019-03-25T19:56:59.345Z,6.50
2019-03-25T19:59:33.603Z,6.60
2019-03-25T20:02:18.072Z,6.70
2019-03-25T20:04:39.279Z,6.70
2019-03-25T20:07:13.956Z,6.70
2019-03-25T20:09:45.460Z,6.70
2019-03-25T20:12:16.995Z,6.70
2019-03-25T20:14:48.467Z,6.80
2019-03-25T20:17:20.401Z,6.80
2019-03-25T20:19:52.053Z,6.80
2019-03-25T20:22:23.514Z,6.80
2019-03-25T20:24:55.164Z,6.80
2019-03-25T20:27:26.653Z,6.80
2019-03-25T20:29:58.146Z,6.80
2019-03-25T20:32:32.023Z,6.80
2019-03-25T20:35:02.843Z,6.70
2019-03-25T20:37:35.358Z,6.60
2019-03-25T20:40:07.201Z,6.50
2019-03-25T20:42:38.873Z,6.30
2019-03-25T20:45:10.370Z,6.20
2019-03-25T20:47:42.254Z,6.00
2019-03-25T20:50:15.020Z,5.90
2019-03-25T20:52:46.551Z,5.80
2019-03-25T20:55:18.263Z,5.80
2019-03-25T20:57:49.700Z,5.80
2019-03-25T21:00:47.379Z,5.70
2019-03-25T21:03:18.834Z,5.80
2019-03-25T21:05:50.499Z,5.70
2019-03-25T21:08:24.359Z,5.70
2019-03-25T21:10:56.154Z,5.60
2019-03-25T21:13:27.678Z,5.50
2019-03-25T21:15:59.163Z,5.40
2019-03-25T21:18:31.664Z,5.30
2019-03-25T21:21:02.975Z,5.30
2019-03-25T21:23:34.354Z,5.20
2019-03-25T21:26:06.141Z,5.10
2019-03-25T21:28:37.336Z,5.00
2019-03-25T21:31:08.634Z,5.00
2019-03-25T21:33:39.997Z,5.00
2019-03-25T21:36:11.274Z,5.00
2019-03-25T21:38:42.827Z,4.90
2019-03-25T21:41:14.415Z,4.80
2019-03-25T21:43:46.125Z,4.80
2019-03-25T21:46:17.309Z,4.80
2019-03-25T21:48:48.906Z,4.70
2019-03-25T21:51:20.229Z,4.70
2019-03-25T21:53:53.506Z,4.60
2019-03-25T21:56:24.971Z,4.60
2019-03-25T21:58:56.351Z,4.60
2019-03-25T22:01:27.925Z,4.60
2019-03-25T22:04:02.030Z,4.60
2019-03-25T22:06:36.754Z,4.50
2019-03-25T22:09:19.003Z,4.40
2019-03-25T22:11:50.638Z,4.40
2019-03-25T22:14:23.645Z,4.40
2019-03-25T22:16:55.598Z,4.30
2019-03-25T22:19:27.077Z,4.40
2019-03-25T22:21:58.612Z,4.40
2019-03-25T22:24:30.390Z,4.30
2019-03-25T22:27:01.839Z,4.30
2019-03-25T22:29:33.438Z,4.40
2019-03-25T22:32:04.985Z,4.40
2019-03-25T22:34:36.334Z,4.40
2019-03-25T22:37:07.727Z,4.40
2019-03-25T22:39:39.152Z,4.50
2019-03-25T22:42:10.428Z,4.50
2019-03-25T22:44:44.001Z,4.50
2019-03-25T22:47:15.304Z,4.60
2019-03-25T22:49:48.652Z,4.80
2019-03-25T22:52:20.372Z,4.90
2019-03-25T22:54:51.735Z,5.10
2019-03-25T22:57:25.048Z,5.20
2019-03-25T22:59:56.363Z,5.30
2019-03-25T23:02:27.772Z,5.40
2019-03-25T23:04:59.118Z,5.50
2019-03-25T23:07:30.708Z,5.50
2019-03-25T23:10:05.332Z,5.60
2019-03-25T23:12:38.822Z,5.60
2019-03-25T23:15:12.906Z,5.70
2019-03-25T23:17:44.298Z,5.70
2019-03-25T23:20:15.569Z,5.70
2019-03-25T23:22:47.003Z,5.70
2019-03-25T23:25:18.494Z,5.80
2019-03-25T23:27:49.991Z,5.80
2019-03-25T23:30:21.557Z,5.80
2019-03-25T23:32:52.859Z,5.90
2019-03-25T23:35:24.185Z,5.80
2019-03-25T23:37:56.868Z,5.90
2019-03-25T23:40:28.259Z,5.80
2019-03-25T23:43:00.631Z,5.90
2019-03-25T23:45:31.912Z,5.90
2019-03-25T23:48:03.291Z,5.80
2019-03-25T23:50:35.083Z,5.90
2019-03-25T23:53:06.774Z,5.90
2019-03-25T23:55:38.058Z,5.90
2019-03-25T23:58:09.314Z,5.90
